コロンボ の空港の天気 - METARとTAF

バンダラナイケ国際空港 ( VCBI / CMB ) - スリランカ コロンボ
飛行場実況気象(Metar)
観測時間05/25 09:40 IST (05/25 04:10 UTC)
風向・風速西南西 5m/s
視程10km以上
天気現象
全天の8割程度の雲 雲底高度 490m
気温30℃
湿度89%
気圧1010hPa
METARVCBI 250410Z 24009KT 9999 BKN016 30/28 Q1010 NOSIG
過去の天気等 Google飛行場航空写真 Wunderground天気予報

過去48時間のMETAR

飛行場予報(TAF)
発表時間: 5/25 04:30 IST (5/24 23:00 UTC)
予報対象時間: 25日5時 IST ~ 26日11時 IST
風向・風速西南西 5m/s
視程10km以上
全天の4割程度の雲 雲底高度 490m
25日5時 IST ~ 25日8時 IST に 確率 30% で一時的に
TAF VCBI 242300Z 2500/2606 24010KT 9999 SCT016 TX31/2507Z TN27/2600Z
PROB30 TEMPO 2500/2503 2510/2515 24010G20KT 7000 -SHRA SCT012 FEW020CB